Time;durP1;ratioP1;P1;durP2;ratioP2;P2;SDS_P1;SDS_P2;PMS_P1;PMS_P2;Temp;Humidity;BMP_temperature;BMP_pressure;BME280_temperature;BME280_humidity;BME280_pressure;Samples;Min_cycle;Max_cycle;Signal;HPM_P1;HPM_P2
2021/10/14 00:13:56;;;;;;;21.33;10.80;;;;;;;3.43;100.00;100874.34;712543;1206;114499;-72
2021/10/14 00:28:58;;;;;;;13.93;6.83;;;;;;;3.25;100.00;100860.50;712222;1205;115239;-73
2021/10/14 00:44:04;;;;;;;23.60;9.90;;;;;;;3.00;100.00;100863.43;712607;1202;114731;-72
2021/10/14 00:59:06;;;;;;;24.43;10.57;;;;;;;2.93;100.00;100846.47;712521;1180;114025;-73
2021/10/14 01:14:08;;;;;;;20.48;10.23;;;;;;;2.80;100.00;100841.05;712442;1206;114261;-74
2021/10/14 01:29:11;;;;;;;43.37;16.53;;;;;;;2.49;100.00;100843.30;712275;1177;114831;-71
2021/10/14 01:44:14;;;;;;;28.27;13.37;;;;;;;2.21;100.00;100841.09;712508;1202;114999;-71
2021/10/14 01:59:16;;;;;;;29.75;13.00;;;;;;;2.21;100.00;100832.49;712312;1206;115311;-72
2021/10/14 02:14:19;;;;;;;36.83;19.68;;;;;;;2.37;100.00;100848.19;712422;1205;114538;-71
2021/10/14 02:29:21;;;;;;;36.65;17.05;;;;;;;2.50;100.00;100850.13;712428;1202;115450;-73
2021/10/14 02:44:23;;;;;;;26.90;13.30;;;;;;;2.54;100.00;100866.39;712499;1183;114338;-73
2021/10/14 02:59:26;;;;;;;25.30;12.90;;;;;;;2.63;100.00;100854.77;712606;1202;113979;-73
2021/10/14 03:14:28;;;;;;;67.60;28.05;;;;;;;2.80;100.00;100856.59;712469;1179;114364;-73
2021/10/14 03:29:30;;;;;;;100.63;34.50;;;;;;;2.99;100.00;100851.38;712534;1179;114526;-72
2021/10/14 03:44:32;;;;;;;75.10;26.90;;;;;;;3.09;100.00;100846.58;712605;1202;114802;-72
2021/10/14 03:59:34;;;;;;;59.47;23.00;;;;;;;2.83;100.00;100833.94;713058;1202;113952;-72
2021/10/14 04:14:36;;;;;;;31.23;16.43;;;;;;;3.22;100.00;100813.98;713064;1206;114327;-71
2021/10/14 04:29:38;;;;;;;33.55;15.73;;;;;;;3.45;100.00;100812.00;714314;1206;114199;-73
2021/10/14 04:44:40;;;;;;;31.63;17.98;;;;;;;3.33;100.00;100809.09;713822;1202;114503;-73
2021/10/14 04:59:43;;;;;;;33.33;17.17;;;;;;;3.35;100.00;100805.59;712635;1206;115423;-73
2021/10/14 05:14:45;;;;;;;21.80;11.40;;;;;;;3.25;100.00;100800.86;712942;1181;114439;-74
2021/10/14 05:29:48;;;;;;;20.70;10.10;;;;;;;3.24;100.00;100799.17;712992;1202;115557;-71
2021/10/14 05:44:51;;;;;;;47.35;24.65;;;;;;;3.41;100.00;100798.34;713976;1203;114196;-74
2021/10/14 05:59:55;;;;;;;36.97;18.57;;;;;;;3.63;100.00;100805.89;714067;1203;115536;-72
2021/10/14 06:14:57;;;;;;;43.30;20.10;;;;;;;4.36;100.00;100815.11;713144;1202;113961;-74
2021/10/14 06:30:00;;;;;;;46.65;20.70;;;;;;;4.63;100.00;100833.58;713047;1206;116754;-80
2021/10/14 06:45:02;;;;;;;40.50;21.47;;;;;;;4.83;100.00;100834.25;713702;1202;115733;-74
2021/10/14 07:00:06;;;;;;;29.03;14.67;;;;;;;5.80;100.00;100809.64;712861;1203;114597;-75
2021/10/14 07:15:10;;;;;;;19.30;11.40;;;;;;;6.90;100.00;100800.31;712929;1202;114341;-75
2021/10/14 07:30:12;;;;;;;372.05;171.90;;;;;;;7.53;100.00;100808.41;714129;1203;114507;-83
2021/10/14 07:45:15;;;;;;;26.13;14.40;;;;;;;9.08;100.00;100795.87;714946;1203;115474;-79
2021/10/14 08:00:17;;;;;;;20.55;11.80;;;;;;;9.73;100.00;100794.50;713963;1179;115099;-79
2021/10/14 08:15:23;;;;;;;24.60;12.57;;;;;;;8.98;100.00;100782.64;714379;1202;114353;-79
2021/10/14 08:30:26;;;;;;;22.40;14.03;;;;;;;9.44;100.00;100781.83;721518;1202;114312;-79
2021/10/14 08:45:29;;;;;;;20.30;11.23;;;;;;;9.38;100.00;100758.71;718864;1202;115404;-79
2021/10/14 09:00:31;;;;;;;26.47;12.97;;;;;;;9.26;100.00;100751.80;714664;1181;114236;-79
2021/10/14 09:15:34;;;;;;;25.68;12.38;;;;;;;9.54;100.00;100752.31;713624;1203;114504;-77
2021/10/14 09:30:51;;;;;;;25.25;12.35;;;;;;;9.68;100.00;100749.48;713500;1203;114144;-75
2021/10/14 09:45:54;;;;;;;18.80;10.13;;;;;;;9.96;100.00;100750.81;713292;1203;114259;-77
2021/10/14 10:00:57;;;;;;;21.33;11.23;;;;;;;10.07;100.00;100744.72;712950;1203;114101;-77
2021/10/14 10:16:14;;;;;;;22.23;11.63;;;;;;;10.27;100.00;100729.20;713124;1203;115374;-76
2021/10/14 10:31:16;;;;;;;23.45;11.85;;;;;;;10.54;100.00;100709.59;712829;1206;114316;-74
2021/10/14 10:46:28;;;;;;;22.38;12.05;;;;;;;10.72;100.00;100715.14;712905;1180;114660;-73
2021/10/14 11:01:45;;;;;;;18.47;12.33;;;;;;;11.25;100.00;100682.76;712957;1202;114346;-74
2021/10/14 11:16:48;;;;;;;19.17;11.23;;;;;;;11.64;100.00;100668.00;713816;1188;114909;-74
2021/10/14 11:32:02;;;;;;;19.10;10.70;;;;;;;11.28;100.00;100666.73;712997;1205;114912;-73
2021/10/14 11:47:07;;;;;;;18.68;12.05;;;;;;;11.22;100.00;100646.27;713134;1180;114370;-74
2021/10/14 12:02:13;;;;;;;30.83;25.30;;;;;;;11.10;100.00;100640.26;713445;1206;115809;-71
2021/10/14 12:17:19;;;;;;;23.63;15.17;;;;;;;10.92;100.00;100630.33;712578;1206;114380;-75
2021/10/14 12:32:22;;;;;;;23.60;11.68;;;;;;;10.67;100.00;100628.92;712686;1203;114782;-71
2021/10/14 12:47:34;;;;;;;22.68;13.88;;;;;;;10.34;100.00;100609.73;712808;1206;114402;-73
2021/10/14 13:02:37;;;;;;;21.35;11.05;;;;;;;10.22;100.00;100598.45;712816;1179;114570;-74
2021/10/14 13:17:40;;;;;;;20.00;13.15;;;;;;;9.93;100.00;100580.68;712890;1202;114434;-76
2021/10/14 13:32:42;;;;;;;19.48;12.48;;;;;;;9.66;100.00;100575.89;712707;1192;114194;-75
2021/10/14 13:47:45;;;;;;;22.68;13.15;;;;;;;9.68;100.00;100553.00;712761;1202;115435;-72
2021/10/14 14:02:48;;;;;;;80.00;36.50;;;;;;;9.69;100.00;100554.67;712824;1205;115972;-72
2021/10/14 14:17:51;;;;;;;30.73;18.80;;;;;;;9.59;100.00;100538.02;712929;1202;114655;-74
2021/10/14 14:32:54;;;;;;;110.45;98.55;;;;;;;9.52;100.00;100535.06;712754;1206;114854;-75
2021/10/14 14:47:56;;;;;;;24.23;15.97;;;;;;;9.37;100.00;100528.41;713156;1202;114949;-75
2021/10/14 15:02:59;;;;;;;32.80;24.77;;;;;;;9.36;100.00;100517.13;712831;1205;115036;-74
2021/10/14 15:18:02;;;;;;;26.68;16.88;;;;;;;9.30;100.00;100521.06;712816;1205;114855;-74
2021/10/14 15:33:06;;;;;;;41.60;23.23;;;;;;;9.28;100.00;100502.02;712833;1202;114617;-76
2021/10/14 15:48:08;;;;;;;26.83;16.57;;;;;;;9.29;100.00;100489.75;712681;1202;115123;-75
2021/10/14 16:03:10;;;;;;;29.20;18.07;;;;;;;9.33;100.00;100491.20;712556;1203;115726;-72
2021/10/14 16:18:15;;;;;;;26.03;15.37;;;;;;;9.33;100.00;100489.39;712752;1203;114151;-75
2021/10/14 16:48:26;;;;;;;27.28;17.80;;;;;;;9.47;100.00;100476.98;712774;1202;115714;-72
2021/10/14 17:03:28;;;;;;;32.53;15.90;;;;;;;9.52;100.00;100466.16;712614;1202;115321;-71
2021/10/14 17:18:32;;;;;;;60.55;44.05;;;;;;;9.62;100.00;100449.56;712672;1184;115292;-70
2021/10/14 17:48:56;;;;;;;41.33;20.13;;;;;;;9.72;100.00;100428.67;712880;1202;115552;-75
2021/10/14 18:49:45;;;;;;;34.07;17.40;;;;;;;10.00;100.00;100397.55;712758;1205;114179;-72
2021/10/14 19:04:53;;;;;;;35.77;19.53;;;;;;;10.09;100.00;100395.95;712613;1205;114434;-70
2021/10/14 19:20:24;;;;;;;31.70;16.65;;;;;;;10.19;100.00;100386.36;712922;1203;115300;-72
2021/10/14 20:21:23;;;;;;;37.07;19.83;;;;;;;10.36;100.00;100366.60;713079;1180;114346;-71
2021/10/14 20:36:29;;;;;;;34.78;18.08;;;;;;;10.43;100.00;100346.73;712872;1202;114458;-72
2021/10/14 20:51:36;;;;;;;43.23;19.63;;;;;;;10.54;100.00;100345.80;712833;1202;115193;-71
2021/10/14 21:06:38;;;;;;;39.18;19.13;;;;;;;10.60;100.00;100326.09;713146;1203;115264;-72
2021/10/14 21:21:40;;;;;;;36.10;19.85;;;;;;;10.67;100.00;100318.52;713216;1203;114671;-71
2021/10/14 21:36:42;;;;;;;32.28;18.58;;;;;;;10.69;100.00;100320.04;713211;1202;115542;-71
2021/10/14 21:51:45;;;;;;;35.03;18.17;;;;;;;10.73;100.00;100291.72;713119;1206;114962;-72
2021/10/14 22:06:47;;;;;;;34.93;17.83;;;;;;;10.81;100.00;100276.14;713205;1202;115465;-71
2021/10/14 22:21:49;;;;;;;36.03;18.20;;;;;;;10.79;100.00;100267.56;712957;1202;115614;-71
2021/10/14 22:36:51;;;;;;;35.77;18.80;;;;;;;10.79;100.00;100252.64;713210;1181;114934;-70
2021/10/14 22:51:55;;;;;;;36.40;20.77;;;;;;;10.60;100.00;100242.15;712801;1202;114529;-70
2021/10/14 23:06:58;;;;;;;28.60;16.97;;;;;;;10.89;100.00;100229.03;713075;1206;116042;-71
2021/10/14 23:22:00;;;;;;;27.97;15.97;;;;;;;10.97;100.00;100223.91;713351;1203;119120;-70
2021/10/14 23:37:02;;;;;;;27.10;14.13;;;;;;;11.00;100.00;100209.69;712484;1205;115336;-71
2021/10/14 23:52:05;;;;;;;26.20;13.95;;;;;;;11.01;100.00;100205.25;712830;1181;115468;-72
